Time;durP1;ratioP1;P1;durP2;ratioP2;P2;SDS_P1;SDS_P2;PMS_P1;PMS_P2;Temp;Humidity;BMP_temperature;BMP_pressure;BME280_temperature;BME280_humidity;BME280_pressure;Samples;Min_cycle;Max_cycle;Signal;HPM_P1;HPM_P2
2021/10/01 00:01:33;;;;;;;3.78;3.08;;;7.80;99.90;;;;;;5047796;28;20200;-81
2021/10/01 00:04:11;;;;;;;2.85;2.65;;;7.80;99.90;;;;;;5042423;27;20340;-81
2021/10/01 00:06:43;;;;;;;6.57;2.95;;;7.90;99.90;;;;;;5046697;28;20235;-81
2021/10/01 00:09:13;;;;;;;6.28;3.10;;;8.00;99.40;;;;;;5028287;28;20205;-81
2021/10/01 00:11:51;;;;;;;5.40;2.78;;;7.90;99.60;;;;;;5032852;28;20201;-81
2021/10/01 00:14:24;;;;;;;3.97;3.65;;;7.80;99.70;;;;;;5030854;28;20203;-81
2021/10/01 00:17:02;;;;;;;4.05;3.30;;;8.00;99.60;;;;;;5041125;28;20288;-81
2021/10/01 00:19:40;;;;;;;3.63;3.05;;;7.90;99.80;;;;;;5040562;28;20202;-81
2021/10/01 00:22:09;;;;;;;3.08;2.40;;;7.90;99.60;;;;;;5028128;28;20670;-81
2021/10/01 00:24:41;;;;;;;4.03;2.75;;;7.90;99.50;;;;;;5037411;28;20296;-81
2021/10/01 00:27:19;;;;;;;6.57;3.67;;;8.00;99.30;;;;;;5034383;28;20291;-81
2021/10/01 00:30:04;;;;;;;6.50;3.30;;;8.10;98.50;;;;;;5040754;28;20552;-81
2021/10/01 00:32:53;;;;;;;3.00;2.78;;;8.00;98.90;;;;;;5033572;28;20303;-81
2021/10/01 00:35:40;;;;;;;3.65;2.55;;;8.00;99.30;;;;;;5034505;28;20215;-81
2021/10/01 00:38:26;;;;;;;4.82;2.90;;;8.00;99.40;;;;;;5030686;28;20201;-81
2021/10/01 00:41:10;;;;;;;4.65;3.65;;;7.90;99.80;;;;;;5034465;28;20202;-80
2021/10/01 00:43:52;;;;;;;4.10;2.95;;;7.90;99.90;;;;;;5032120;27;20212;-81
2021/10/01 00:46:26;;;;;;;2.70;2.50;;;7.90;99.90;;;;;;5028560;27;20263;-81
2021/10/01 00:48:58;;;;;;;3.20;2.60;;;7.90;99.80;;;;;;5038712;28;20193;-81
2021/10/01 00:51:38;;;;;;;2.28;2.05;;;7.90;99.80;;;;;;5027677;28;20196;-80
2021/10/01 00:54:12;;;;;;;2.85;2.53;;;8.00;99.70;;;;;;5037680;28;20241;-81
2021/10/01 00:56:47;;;;;;;3.30;2.28;;;8.00;99.60;;;;;;5034707;28;20227;-81
2021/10/01 00:59:27;;;;;;;2.45;2.25;;;8.00;99.10;;;;;;5027535;28;20689;-81
2021/10/01 01:02:08;;;;;;;5.00;3.35;;;8.00;98.80;;;;;;5038007;28;20273;-81
2021/10/01 01:04:47;;;;;;;2.72;2.45;;;8.10;98.90;;;;;;5033303;27;20223;-81
2021/10/01 01:07:24;;;;;;;7.63;3.17;;;8.20;98.70;;;;;;5032739;28;20589;-81
2021/10/01 01:10:08;;;;;;;2.90;2.70;;;8.10;98.30;;;;;;5044757;27;20223;-81
2021/10/01 01:12:53;;;;;;;4.10;2.88;;;8.00;98.50;;;;;;5030831;28;20232;-81
2021/10/01 01:15:30;;;;;;;3.85;2.85;;;8.00;98.60;;;;;;5028059;28;20223;-81
2021/10/01 01:18:11;;;;;;;2.58;2.00;;;8.00;98.80;;;;;;5034371;28;20205;-81
2021/10/01 01:20:49;;;;;;;3.70;2.05;;;8.10;98.50;;;;;;5030478;27;20234;-81
2021/10/01 01:23:43;;;;;;;2.42;2.22;;;7.90;98.50;;;;;;5032210;28;20213;-80
2021/10/01 01:26:35;;;;;;;8.52;2.40;;;8.00;98.90;;;;;;5027050;28;20232;-81
2021/10/01 01:29:28;;;;;;;2.72;2.53;;;7.90;99.30;;;;;;5026458;28;20685;-81
2021/10/01 01:32:14;;;;;;;2.95;2.72;;;7.90;99.40;;;;;;5043628;28;20207;-80
2021/10/01 01:34:51;;;;;;;4.05;2.70;;;7.90;99.30;;;;;;5063273;27;20295;-80
2021/10/01 01:37:40;;;;;;;2.97;2.78;;;7.80;99.60;;;;;;5040085;28;20220;-80
2021/10/01 01:40:16;;;;;;;2.53;2.33;;;7.80;99.80;;;;;;5030374;28;20211;-80
2021/10/01 01:42:59;;;;;;;3.00;2.80;;;7.80;99.80;;;;;;5029360;28;20199;-81
2021/10/01 01:45:36;;;;;;;2.30;2.10;;;7.80;99.60;;;;;;5030477;27;20239;-80
2021/10/01 01:48:16;;;;;;;2.95;2.58;;;7.80;99.70;;;;;;5026259;28;20234;-81
2021/10/01 01:50:57;;;;;;;5.80;3.28;;;7.80;99.90;;;;;;5032948;28;20269;-80
2021/10/01 01:53:45;;;;;;;4.20;2.75;;;7.70;99.90;;;;;;5032690;27;20201;-80
2021/10/01 01:56:33;;;;;;;2.60;2.30;;;7.70;99.90;;;;;;5026534;28;20296;-81
2021/10/01 01:59:08;;;;;;;8.82;2.80;;;7.80;99.60;;;;;;5045752;28;20204;-81
2021/10/01 02:01:48;;;;;;;2.67;2.40;;;7.80;99.10;;;;;;5042279;28;20227;-81
2021/10/01 02:04:30;;;;;;;2.28;2.17;;;7.90;99.10;;;;;;5041624;28;20287;-80
2021/10/01 02:07:08;;;;;;;3.83;2.72;;;7.90;98.90;;;;;;5044131;28;20598;-81
2021/10/01 02:09:44;;;;;;;2.80;2.60;;;7.90;99.00;;;;;;5026411;28;20253;-81
2021/10/01 02:12:26;;;;;;;4.07;2.65;;;7.90;99.00;;;;;;5037757;28;20303;-81
2021/10/01 02:15:02;;;;;;;2.58;2.40;;;7.90;99.20;;;;;;5038822;27;20219;-81
2021/10/01 02:17:43;;;;;;;2.90;2.70;;;7.90;99.20;;;;;;5036223;28;20580;-80
2021/10/01 02:20:25;;;;;;;3.47;2.83;;;7.90;99.00;;;;;;5033989;28;20526;-80
2021/10/01 02:22:58;;;;;;;3.33;2.95;;;8.00;99.10;;;;;;5046424;28;20231;-81
2021/10/01 02:28:33;;;;;;;3.72;2.38;;;8.00;99.10;;;;;;5040558;28;20683;-81
2021/10/01 02:31:12;;;;;;;2.80;2.60;;;8.20;99.00;;;;;;5033260;28;20261;-80
2021/10/01 02:33:47;;;;;;;2.63;2.20;;;8.10;98.70;;;;;;5044000;28;20207;-80
2021/10/01 02:36:20;;;;;;;2.42;2.20;;;8.00;98.70;;;;;;5026097;28;20539;-80
2021/10/01 02:38:54;;;;;;;2.40;2.30;;;8.10;98.90;;;;;;5039907;28;20195;-80
2021/10/01 02:41:31;;;;;;;2.60;2.40;;;8.00;98.50;;;;;;5032765;28;20731;-81
2021/10/01 02:44:13;;;;;;;3.40;2.65;;;8.10;98.70;;;;;;5039770;28;20199;-80
2021/10/01 02:46:44;;;;;;;3.83;2.50;;;8.00;99.10;;;;;;5030444;28;20247;-81
2021/10/01 02:49:15;;;;;;;3.97;3.33;;;7.90;99.40;;;;;;5043049;28;20257;-81
2021/10/01 02:51:54;;;;;;;4.65;2.10;;;7.80;99.80;;;;;;5028562;28;20204;-81
2021/10/01 02:54:41;;;;;;;4.38;2.63;;;7.80;99.90;;;;;;5035711;28;20200;-80
2021/10/01 02:57:21;;;;;;;2.70;2.50;;;7.80;99.70;;;;;;5032160;28;20545;-80
2021/10/01 03:00:00;;;;;;;2.13;2.03;;;7.80;99.70;;;;;;5042741;28;20668;-81
2021/10/01 03:02:52;;;;;;;2.20;2.00;;;7.90;99.60;;;;;;5027100;28;20212;-80
2021/10/01 03:05:32;;;;;;;2.72;2.53;;;7.90;99.60;;;;;;5045957;28;20200;-80
2021/10/01 03:08:12;;;;;;;2.28;2.17;;;7.80;99.90;;;;;;5048115;28;20610;-80
2021/10/01 03:10:51;;;;;;;2.33;2.13;;;7.80;99.90;;;;;;5028065;28;20208;-80
2021/10/01 03:13:36;;;;;;;2.65;2.40;;;7.70;99.90;;;;;;5030227;28;20205;-80
2021/10/01 03:16:14;;;;;;;2.85;2.65;;;7.60;99.90;;;;;;5033507;28;20292;-80
2021/10/01 03:18:47;;;;;;;2.20;2.00;;;7.60;99.90;;;;;;5048621;28;20622;-80
2021/10/01 03:21:22;;;;;;;2.80;2.60;;;7.50;99.90;;;;;;5028823;28;20287;-81
2021/10/01 03:24:01;;;;;;;2.60;2.40;;;7.60;99.90;;;;;;5039314;28;20319;-80
2021/10/01 03:26:38;;;;;;;2.63;2.40;;;7.60;99.90;;;;;;5029077;28;20231;-80
2021/10/01 03:29:22;;;;;;;2.60;2.40;;;7.60;99.90;;;;;;5030351;28;20314;-80
2021/10/01 03:31:56;;;;;;;3.03;2.83;;;7.60;99.90;;;;;;5044114;28;20207;-80
2021/10/01 03:34:31;;;;;;;2.22;2.08;;;7.60;99.90;;;;;;5044670;28;20267;-80
2021/10/01 03:37:15;;;;;;;3.03;2.60;;;7.50;99.90;;;;;;5037419;28;20552;-81
2021/10/01 03:39:58;;;;;;;3.60;2.45;;;7.50;99.90;;;;;;5042539;28;20200;-80
2021/10/01 03:42:29;;;;;;;3.60;3.25;;;7.50;99.90;;;;;;5027917;28;20209;-81
2021/10/01 03:45:04;;;;;;;10.43;3.08;;;7.50;99.90;;;;;;5028090;28;20319;-81
2021/10/01 03:47:41;;;;;;;3.95;3.00;;;7.50;99.90;;;;;;5027326;28;20904;-81
2021/10/01 03:50:16;;;;;;;2.90;2.60;;;7.50;99.90;;;;;;5028124;28;20192;-80
2021/10/01 03:52:52;;;;;;;4.80;2.30;;;7.50;99.90;;;;;;5028485;28;20665;-80
2021/10/01 03:55:32;;;;;;;3.97;2.70;;;7.60;99.90;;;;;;5027883;28;20283;-80
2021/10/01 03:58:05;;;;;;;5.15;3.70;;;7.70;99.90;;;;;;5027227;28;20248;-80
2021/10/01 04:00:40;;;;;;;9.95;5.20;;;7.70;99.80;;;;;;5028187;28;20199;-80
2021/10/01 04:03:24;;;;;;;2.85;2.65;;;7.70;99.80;;;;;;5027760;28;20295;-80
2021/10/01 04:06:09;;;;;;;3.10;2.80;;;7.70;99.70;;;;;;5027350;28;20221;-80
2021/10/01 04:08:41;;;;;;;2.88;2.38;;;7.70;99.90;;;;;;5027633;28;20203;-80
2021/10/01 04:11:18;;;;;;;5.63;3.03;;;7.70;99.90;;;;;;5028228;28;20207;-80
2021/10/01 04:13:55;;;;;;;2.17;1.98;;;7.70;99.80;;;;;;5027670;28;20216;-80
2021/10/01 04:16:32;;;;;;;3.40;2.45;;;7.70;99.90;;;;;;5026162;28;20598;-80
2021/10/01 04:19:07;;;;;;;3.13;2.83;;;7.70;99.90;;;;;;5027936;28;20208;-80
2021/10/01 04:21:41;;;;;;;5.82;3.00;;;7.70;99.90;;;;;;5028393;28;20259;-80
2021/10/01 04:24:15;;;;;;;3.28;2.70;;;7.70;99.90;;;;;;5028410;28;20197;-81
2021/10/01 04:26:49;;;;;;;3.00;2.40;;;7.70;99.70;;;;;;5027064;28;20216;-80
2021/10/01 04:29:30;;;;;;;3.35;2.80;;;7.80;99.50;;;;;;5028016;28;20193;-80
2021/10/01 04:32:05;;;;;;;3.20;3.00;;;7.80;99.50;;;;;;5055760;28;20196;-80
2021/10/01 04:34:56;;;;;;;2.75;2.40;;;7.80;99.50;;;;;;5040740;28;20204;-80
2021/10/01 04:37:34;;;;;;;3.03;2.70;;;7.80;99.50;;;;;;5028058;28;20704;-80
2021/10/01 04:40:09;;;;;;;3.25;2.85;;;7.80;99.50;;;;;;5037405;28;20197;-80
2021/10/01 04:42:46;;;;;;;2.70;2.50;;;7.80;99.50;;;;;;5027737;28;20306;-80
2021/10/01 04:45:21;;;;;;;2.95;2.72;;;7.70;99.50;;;;;;5035847;28;20624;-80
2021/10/01 04:48:05;;;;;;;3.80;2.55;;;7.70;99.70;;;;;;5036545;28;20212;-80
2021/10/01 04:50:42;;;;;;;2.35;2.20;;;7.60;99.90;;;;;;5042716;28;20564;-80
2021/10/01 04:53:20;;;;;;;3.35;2.70;;;7.50;99.90;;;;;;5027969;28;20570;-80
2021/10/01 04:55:56;;;;;;;3.00;2.80;;;7.40;99.90;;;;;;5027803;28;20281;-80
2021/10/01 04:58:30;;;;;;;3.97;3.50;;;7.50;99.90;;;;;;5026599;28;20204;-80
2021/10/01 05:01:04;;;;;;;4.53;2.72;;;7.50;99.90;;;;;;5035255;28;20196;-81
2021/10/01 05:03:41;;;;;;;3.03;2.83;;;7.50;99.90;;;;;;5111625;27;20209;-80
2021/10/01 05:06:18;;;;;;;2.85;2.65;;;7.60;99.90;;;;;;5070510;27;20202;-80
2021/10/01 05:08:55;;;;;;;3.33;3.03;;;7.60;99.90;;;;;;5049547;28;20636;-80
2021/10/01 05:11:28;;;;;;;3.50;2.70;;;7.60;99.90;;;;;;5045602;28;20293;-80
2021/10/01 05:14:03;;;;;;;4.43;3.22;;;7.50;99.90;;;;;;5039077;28;20618;-80
2021/10/01 05:16:36;;;;;;;3.03;2.72;;;7.60;99.90;;;;;;5038687;28;20266;-81
2021/10/01 05:19:09;;;;;;;3.50;3.17;;;7.60;99.90;;;;;;5035002;27;20194;-81
2021/10/01 05:21:47;;;;;;;8.15;3.35;;;7.60;99.80;;;;;;5036912;28;20200;-80
2021/10/01 05:24:23;;;;;;;13.23;4.60;;;7.60;99.90;;;;;;5038094;28;20806;-81
2021/10/01 05:26:57;;;;;;;27.35;7.18;;;7.50;99.90;;;;;;5036070;28;20654;-80
2021/10/01 05:29:35;;;;;;;12.27;4.20;;;7.50;99.90;;;;;;5033250;28;20308;-81
2021/10/01 05:32:22;;;;;;;5.95;4.00;;;7.50;99.90;;;;;;5033580;28;20208;-82
2021/10/01 05:34:57;;;;;;;8.85;4.97;;;7.60;99.80;;;;;;5037302;27;20309;-82
2021/10/01 05:37:33;;;;;;;6.07;4.13;;;7.70;99.40;;;;;;5035304;28;20204;-81
2021/10/01 05:40:12;;;;;;;9.18;4.40;;;7.70;99.20;;;;;;5035686;28;20201;-82
2021/10/01 05:42:55;;;;;;;12.82;5.18;;;7.70;99.00;;;;;;5039105;28;20208;-83
2021/10/01 05:45:33;;;;;;;14.25;5.85;;;7.80;99.20;;;;;;5038572;28;20206;-82
2021/10/01 05:48:07;;;;;;;11.27;4.75;;;7.90;99.10;;;;;;5029230;27;20240;-82
2021/10/01 05:50:54;;;;;;;8.68;3.78;;;7.90;98.70;;;;;;5036943;28;20196;-82
2021/10/01 05:53:47;;;;;;;5.68;3.70;;;7.80;98.60;;;;;;5039946;27;20227;-81
2021/10/01 05:56:21;;;;;;;11.43;3.85;;;7.90;98.70;;;;;;5030444;28;20197;-81
2021/10/01 05:58:59;;;;;;;5.07;3.70;;;7.80;98.70;;;;;;5034086;27;20942;-81
2021/10/01 06:01:40;;;;;;;3.38;2.75;;;7.90;98.80;;;;;;5035622;28;20870;-81
2021/10/01 06:04:17;;;;;;;9.60;3.25;;;8.00;98.60;;;;;;5035158;28;20722;-82
2021/10/01 06:06:56;;;;;;;5.38;3.35;;;7.80;98.60;;;;;;5035183;28;20693;-81
2021/10/01 06:09:33;;;;;;;3.17;2.97;;;7.80;99.00;;;;;;5035234;28;20200;-81
2021/10/01 06:12:10;;;;;;;4.10;3.80;;;7.90;99.00;;;;;;5033709;27;20212;-81
2021/10/01 06:14:45;;;;;;;11.63;7.07;;;7.90;98.90;;;;;;5048026;27;20211;-81
2021/10/01 06:17:22;;;;;;;3.75;3.45;;;8.00;98.50;;;;;;5042168;27;20207;-81
2021/10/01 06:20:02;;;;;;;4.20;3.38;;;8.10;98.40;;;;;;5057894;27;20230;-81
2021/10/01 06:22:40;;;;;;;3.67;3.33;;;8.10;98.30;;;;;;5052005;28;20196;-82
2021/10/01 06:25:18;;;;;;;3.05;2.85;;;8.20;98.20;;;;;;5036279;28;20196;-81
2021/10/01 06:27:57;;;;;;;4.97;3.50;;;8.10;98.20;;;;;;5035523;27;20668;-81
2021/10/01 06:30:38;;;;;;;7.75;4.55;;;8.40;98.40;;;;;;5060004;27;20203;-81
2021/10/01 06:33:16;;;;;;;3.58;3.20;;;8.40;98.00;;;;;;5038726;28;20216;-81
2021/10/01 06:35:50;;;;;;;6.22;3.15;;;8.50;97.70;;;;;;5045125;28;20569;-81
2021/10/01 06:38:29;;;;;;;6.37;4.10;;;8.50;97.60;;;;;;5043755;28;20639;-82
2021/10/01 06:41:09;;;;;;;10.50;3.42;;;8.60;97.50;;;;;;5062910;28;20741;-82
2021/10/01 06:43:55;;;;;;;4.75;3.40;;;8.70;97.40;;;;;;5053588;28;20192;-81
2021/10/01 06:46:41;;;;;;;4.20;3.63;;;8.70;97.30;;;;;;5033594;28;20201;-81
2021/10/01 06:49:29;;;;;;;3.78;3.38;;;8.80;97.60;;;;;;5069040;27;21169;-81
2021/10/01 07:36:31;;;;;;;3.30;2.97;;;10.80;94.10;;;;;;5059119;27;20850;-81
2021/10/01 08:20:45;;;;;;;2.47;2.27;;;12.30;93.50;;;;;;5032734;28;20685;-81
2021/10/01 08:23:19;;;;;;;3.70;2.13;;;12.20;93.90;;;;;;5036861;28;20620;-81
2021/10/01 08:26:01;;;;;;;3.20;2.90;;;12.40;93.60;;;;;;5035989;27;20651;-81
2021/10/01 08:29:15;;;;;;;2.60;2.40;;;12.80;93.20;;;;;;5037309;27;21241;-82
2021/10/01 08:31:59;;;;;;;2.77;1.87;;;12.80;92.00;;;;;;5060188;27;20723;-80
2021/10/01 08:34:45;;;;;;;3.47;2.13;;;13.00;92.40;;;;;;5033454;28;20642;-80
2021/10/01 08:37:22;;;;;;;4.07;3.30;;;13.00;91.60;;;;;;5036470;28;20621;-81
2021/10/01 08:39:56;;;;;;;3.73;2.40;;;13.20;91.90;;;;;;5041192;27;20630;-80
2021/10/01 08:42:35;;;;;;;17.30;4.00;;;13.30;92.00;;;;;;5037619;28;20622;-80
2021/10/01 08:45:15;;;;;;;6.13;2.73;;;13.50;91.60;;;;;;5035819;28;21206;-80
2021/10/01 08:47:57;;;;;;;3.47;2.30;;;13.80;91.20;;;;;;5036744;28;20710;-80
2021/10/01 08:50:39;;;;;;;3.20;2.87;;;13.80;91.20;;;;;;5036593;28;21272;-81
2021/10/01 08:53:09;;;;;;;4.50;3.17;;;13.80;91.00;;;;;;5037175;27;21158;-81
2021/10/01 08:55:46;;;;;;;4.37;2.60;;;13.90;91.30;;;;;;5036394;28;20631;-81
2021/10/01 08:58:25;;;;;;;3.50;3.20;;;14.00;91.50;;;;;;5038302;27;21195;-81
2021/10/01 09:01:14;;;;;;;5.17;2.30;;;14.10;91.10;;;;;;5034292;28;20822;-80
2021/10/01 09:03:52;;;;;;;4.47;2.03;;;14.30;90.40;;;;;;5040201;28;20971;-81
2021/10/01 09:06:28;;;;;;;2.93;2.10;;;14.30;90.50;;;;;;5041210;28;20647;-80
2021/10/01 09:09:05;;;;;;;2.37;1.77;;;14.30;90.80;;;;;;5033497;27;20670;-80
2021/10/01 09:12:01;;;;;;;2.30;2.10;;;14.40;91.30;;;;;;5038487;28;20619;-80
2021/10/01 09:14:45;;;;;;;1.97;1.70;;;14.70;89.80;;;;;;5024942;28;21505;-81
2021/10/01 09:17:26;;;;;;;2.17;1.97;;;14.70;90.00;;;;;;5039270;27;20636;-81
2021/10/01 09:20:09;;;;;;;1.53;1.43;;;14.80;89.50;;;;;;5043434;28;21180;-81
2021/10/01 09:22:51;;;;;;;3.80;2.00;;;14.80;90.10;;;;;;5028769;27;21025;-80
2021/10/01 09:25:29;;;;;;;1.70;1.60;;;14.80;90.30;;;;;;5124189;27;20656;-80
2021/10/01 09:28:02;;;;;;;10.07;3.73;;;14.90;90.30;;;;;;5033554;28;21004;-81
2021/10/01 09:30:45;;;;;;;2.57;2.37;;;15.00;90.20;;;;;;5037459;27;20664;-80
2021/10/01 09:33:27;;;;;;;2.60;1.83;;;15.00;90.10;;;;;;5024885;28;20660;-81
2021/10/01 09:36:10;;;;;;;3.63;1.97;;;15.10;89.60;;;;;;5033811;28;21126;-80
2021/10/01 09:38:45;;;;;;;2.27;2.00;;;15.30;88.80;;;;;;5031234;28;20619;-80
2021/10/01 09:41:34;;;;;;;2.07;1.80;;;15.40;88.80;;;;;;5038766;28;20675;-81
2021/10/01 09:44:14;;;;;;;3.10;1.60;;;15.60;87.90;;;;;;5069939;27;20643;-81
2021/10/01 09:46:51;;;;;;;2.03;1.80;;;15.70;89.50;;;;;;5028348;27;20656;-80
2021/10/01 09:49:36;;;;;;;2.37;1.90;;;15.50;90.00;;;;;;5038854;28;20691;-80
2021/10/01 09:52:11;;;;;;;2.43;1.67;;;15.40;89.30;;;;;;5034156;28;20665;-81
2021/10/01 09:54:49;;;;;;;3.07;2.87;;;15.80;87.50;;;;;;5046714;27;21224;-81
2021/10/01 09:57:27;;;;;;;1.57;1.47;;;15.90;88.30;;;;;;5028973;28;20984;-81
2021/10/01 10:00:08;;;;;;;1.90;1.80;;;15.90;87.50;;;;;;5027439;28;20755;-81
2021/10/01 10:02:46;;;;;;;2.87;1.87;;;16.10;85.70;;;;;;5039492;27;20630;-81
2021/10/01 10:05:23;;;;;;;1.90;1.70;;;16.10;86.00;;;;;;5046019;28;20628;-81
2021/10/01 10:08:00;;;;;;;3.03;2.70;;;16.10;88.20;;;;;;5045828;27;21233;-81
2021/10/01 10:10:45;;;;;;;3.17;1.60;;;16.20;86.50;;;;;;5043996;28;20633;-81
2021/10/01 10:13:43;;;;;;;1.57;1.33;;;16.20;85.40;;;;;;5040021;28;20648;-81
2021/10/01 10:16:19;;;;;;;1.73;1.63;;;16.30;85.10;;;;;;5031915;28;20631;-80
2021/10/01 10:18:59;;;;;;;3.10;1.30;;;16.30;86.80;;;;;;5044686;27;20640;-81
2021/10/01 10:21:43;;;;;;;2.90;1.43;;;16.40;84.90;;;;;;5045691;27;20721;-81
2021/10/01 10:24:18;;;;;;;2.73;1.57;;;16.40;85.30;;;;;;5046473;28;20657;-81
2021/10/01 10:26:57;;;;;;;1.60;1.50;;;16.70;82.90;;;;;;5043904;28;20739;-80
2021/10/01 10:29:28;;;;;;;2.13;1.50;;;16.70;84.30;;;;;;5045931;28;20699;-80
2021/10/01 10:32:08;;;;;;;2.10;1.10;;;16.50;83.10;;;;;;5051051;28;20620;-81
2021/10/01 10:34:52;;;;;;;1.27;1.27;;;16.70;81.40;;;;;;5031323;27;21286;-81
2021/10/01 10:37:38;;;;;;;1.30;1.20;;;16.90;81.10;;;;;;5040589;28;20634;-80
2021/10/01 10:40:24;;;;;;;2.20;1.30;;;16.90;80.50;;;;;;5026984;28;20639;-80
2021/10/01 10:43:03;;;;;;;1.50;1.33;;;16.90;82.10;;;;;;5045735;28;20634;-81
2021/10/01 10:45:37;;;;;;;1.17;1.07;;;16.90;81.80;;;;;;5052327;27;20625;-81
2021/10/01 10:48:24;;;;;;;1.47;1.20;;;17.10;80.20;;;;;;5026660;28;21079;-80
2021/10/01 10:51:03;;;;;;;1.80;1.30;;;17.10;78.10;;;;;;5045033;27;20704;-81
2021/10/01 10:53:41;;;;;;;3.33;1.40;;;17.20;77.80;;;;;;5025511;28;20730;-80
2021/10/01 10:56:19;;;;;;;1.30;1.20;;;17.30;77.70;;;;;;5042328;28;20633;-80
2021/10/01 10:58:54;;;;;;;1.30;1.20;;;17.30;80.30;;;;;;5044289;27;21062;-81
2021/10/01 11:01:38;;;;;;;1.40;1.30;;;17.20;78.80;;;;;;5029285;27;21055;-81
2021/10/01 11:04:36;;;;;;;2.53;1.20;;;17.40;76.80;;;;;;5024966;28;20650;-80
2021/10/01 11:07:10;;;;;;;1.30;1.20;;;17.50;76.50;;;;;;5037343;27;20641;-81
2021/10/01 11:10:38;;;;;;;3.87;1.00;;;17.50;74.90;;;;;;5043736;28;21178;-81
2021/10/01 11:13:28;;;;;;;6.17;1.60;;;17.40;74.80;;;;;;5025343;28;20622;-81
2021/10/01 11:16:17;;;;;;;2.53;1.33;;;17.30;75.20;;;;;;5026801;28;20642;-81
2021/10/01 11:19:04;;;;;;;1.57;1.40;;;17.40;75.30;;;;;;5026162;28;21195;-81
2021/10/01 11:21:43;;;;;;;1.53;1.43;;;17.50;75.50;;;;;;5028902;27;20642;-81
2021/10/01 11:24:18;;;;;;;1.20;1.10;;;17.60;74.10;;;;;;5042518;28;20652;-81
2021/10/01 11:26:58;;;;;;;2.00;1.37;;;17.90;72.80;;;;;;5039151;28;21247;-81
2021/10/01 11:29:36;;;;;;;1.67;1.20;;;17.80;72.50;;;;;;5039984;28;21060;-81
2021/10/01 11:32:19;;;;;;;2.10;1.07;;;18.00;72.50;;;;;;5043201;27;20646;-81
2021/10/01 11:34:55;;;;;;;2.00;1.30;;;18.00;73.50;;;;;;5040938;27;20633;-81
2021/10/01 11:37:34;;;;;;;5.03;1.93;;;18.00;71.60;;;;;;5122136;27;21212;-81
2021/10/01 11:40:10;;;;;;;2.13;1.50;;;17.90;72.70;;;;;;5042796;27;20691;-80
2021/10/01 11:42:49;;;;;;;20.20;5.60;;;17.80;73.00;;;;;;5048916;28;20732;-81
2021/10/01 11:45:32;;;;;;;1.43;1.33;;;18.00;73.10;;;;;;5039064;27;21198;-80
2021/10/01 11:48:09;;;;;;;3.67;1.87;;;18.00;75.80;;;;;;5031192;28;20721;-81
2021/10/01 11:50:55;;;;;;;1.20;1.10;;;18.20;68.50;;;;;;5038094;28;20626;-81
2021/10/01 11:53:42;;;;;;;6.40;1.33;;;18.20;67.50;;;;;;5037935;27;20651;-80
2021/10/01 11:56:28;;;;;;;2.67;1.53;;;18.20;68.50;;;;;;5034817;28;20627;-81
2021/10/01 11:59:06;;;;;;;5.60;3.33;;;18.20;69.50;;;;;;5030201;28;20653;-81
2021/10/01 12:01:42;;;;;;;1.57;1.47;;;18.30;69.70;;;;;;5039673;27;21317;-81
2021/10/01 12:04:31;;;;;;;1.70;1.60;;;18.20;68.50;;;;;;5048417;28;20632;-80
2021/10/01 12:07:07;;;;;;;0.90;0.90;;;18.10;68.10;;;;;;5045020;28;21217;-81
2021/10/01 12:10:01;;;;;;;1.40;1.03;;;18.40;66.90;;;;;;5036145;27;21351;-82
2021/10/01 12:13:11;;;;;;;2.40;1.43;;;18.70;65.80;;;;;;5029643;28;20619;-82
2021/10/01 12:15:51;;;;;;;2.10;1.30;;;18.70;67.60;;;;;;5039802;27;20622;-81
2021/10/01 12:18:40;;;;;;;1.60;1.50;;;18.80;68.30;;;;;;5040651;27;20650;-81
2021/10/01 12:21:17;;;;;;;1.47;1.30;;;19.00;67.40;;;;;;5028110;28;20739;-83
2021/10/01 12:23:56;;;;;;;2.40;1.73;;;18.90;71.80;;;;;;5029145;28;20631;-83
2021/10/01 12:26:33;;;;;;;3.20;2.17;;;18.90;68.60;;;;;;5047152;27;20625;-83
2021/10/01 12:29:11;;;;;;;2.17;1.70;;;19.10;67.30;;;;;;5047351;28;20666;-83
2021/10/01 12:31:56;;;;;;;1.43;1.33;;;19.10;66.10;;;;;;5042978;28;20711;-83
2021/10/01 12:34:33;;;;;;;2.00;1.60;;;19.10;68.90;;;;;;5067343;28;20633;-82
2021/10/01 12:37:09;;;;;;;1.60;1.50;;;19.10;69.00;;;;;;5043946;28;20762;-83
2021/10/01 12:39:49;;;;;;;2.10;1.17;;;19.10;68.50;;;;;;5063558;27;20637;-83
2021/10/01 12:42:29;;;;;;;1.40;1.30;;;19.20;67.70;;;;;;5044262;28;20619;-82
2021/10/01 12:45:07;;;;;;;1.10;1.00;;;19.20;62.70;;;;;;5047006;28;20628;-82
2021/10/01 12:47:55;;;;;;;1.47;1.37;;;19.20;64.40;;;;;;5046710;28;20734;-82
2021/10/01 12:50:31;;;;;;;2.20;1.70;;;19.20;64.40;;;;;;5047473;27;20684;-82
2021/10/01 12:53:06;;;;;;;2.30;1.57;;;19.30;64.70;;;;;;5027037;28;20635;-82
2021/10/01 12:55:47;;;;;;;1.40;1.30;;;19.30;64.90;;;;;;5029586;27;20742;-83
2021/10/01 12:58:20;;;;;;;1.80;1.50;;;19.40;66.40;;;;;;5037014;28;20619;-82
2021/10/01 13:00:54;;;;;;;1.63;1.53;;;19.50;65.00;;;;;;5034738;27;20658;-82
2021/10/01 13:03:46;;;;;;;1.50;1.40;;;19.30;64.30;;;;;;5034449;27;21218;-82
2021/10/01 13:06:33;;;;;;;1.70;1.60;;;19.40;66.30;;;;;;5040006;28;20660;-81
2021/10/01 13:09:36;;;;;;;1.93;1.77;;;19.30;66.70;;;;;;5027440;28;20659;-83
2021/10/01 13:12:07;;;;;;;3.13;1.70;;;19.40;66.90;;;;;;5045254;27;20664;-82
2021/10/01 13:14:43;;;;;;;2.13;2.03;;;19.60;66.00;;;;;;5046499;27;20630;-83
2021/10/01 13:17:23;;;;;;;5.17;1.77;;;19.60;70.20;;;;;;5041989;28;20636;-83
2021/10/01 13:20:11;;;;;;;1.73;1.63;;;19.70;67.00;;;;;;5032109;28;20634;-83
2021/10/01 13:23:01;;;;;;;2.60;2.40;;;19.90;65.80;;;;;;5047096;27;20621;-83
2021/10/01 13:25:37;;;;;;;2.10;1.87;;;19.80;66.50;;;;;;5035971;27;20658;-83
2021/10/01 13:28:12;;;;;;;1.93;1.77;;;19.80;67.40;;;;;;5035759;27;20623;-83
2021/10/01 13:30:50;;;;;;;1.67;1.57;;;19.90;68.00;;;;;;5036380;28;20631;-82
2021/10/01 13:33:37;;;;;;;2.60;2.40;;;20.00;67.40;;;;;;5027297;28;20722;-84
2021/10/01 13:36:15;;;;;;;2.07;1.97;;;20.10;66.60;;;;;;5039569;28;21000;-82
2021/10/01 13:38:50;;;;;;;2.40;2.17;;;20.10;67.60;;;;;;5044908;28;20641;-83
2021/10/01 13:41:28;;;;;;;2.43;2.23;;;20.10;69.40;;;;;;5106291;27;21031;-83
2021/10/01 13:44:04;;;;;;;2.10;2.00;;;20.30;69.20;;;;;;5151458;27;20654;-83
2021/10/01 13:46:42;;;;;;;4.30;2.87;;;20.20;69.10;;;;;;5044146;27;20658;-83
2021/10/01 13:49:16;;;;;;;2.67;2.47;;;20.20;68.90;;;;;;5046785;28;20700;-83
2021/10/01 13:52:05;;;;;;;2.23;2.03;;;20.20;70.70;;;;;;5027010;28;21029;-82
2021/10/01 13:54:38;;;;;;;3.10;2.57;;;20.10;73.00;;;;;;5040929;27;20627;-82
2021/10/01 13:57:12;;;;;;;4.40;2.67;;;20.20;70.80;;;;;;5043153;28;20655;-82
2021/10/01 13:59:46;;;;;;;2.40;2.07;;;20.40;68.90;;;;;;5036445;27;20647;-83
2021/10/01 14:02:27;;;;;;;3.20;2.90;;;20.50;69.90;;;;;;5042181;28;20636;-83
2021/10/01 14:05:11;;;;;;;2.97;2.77;;;20.70;68.80;;;;;;5042860;28;20740;-83
2021/10/01 14:07:49;;;;;;;2.60;2.40;;;20.90;70.30;;;;;;5044828;28;21026;-83
2021/10/01 14:10:27;;;;;;;4.70;3.40;;;21.40;70.10;;;;;;5044079;27;20676;-83
2021/10/01 14:13:02;;;;;;;2.93;2.70;;;22.10;67.20;;;;;;5046785;28;20720;-82
2021/10/01 14:15:34;;;;;;;8.00;3.57;;;22.60;69.00;;;;;;5045527;27;20747;-83
2021/10/01 14:18:09;;;;;;;4.57;3.17;;;23.10;67.60;;;;;;5035312;27;20633;-83
2021/10/01 14:20:45;;;;;;;3.30;2.83;;;24.30;65.40;;;;;;5039642;28;20693;-83
2021/10/01 14:23:31;;;;;;;3.83;3.40;;;24.60;64.00;;;;;;5045256;28;20615;-84
2021/10/01 14:26:06;;;;;;;7.10;3.17;;;24.20;60.80;;;;;;5035010;27;20630;-83
2021/10/01 14:28:41;;;;;;;3.97;3.57;;;23.80;60.60;;;;;;5040554;28;20633;-83
2021/10/01 14:31:20;;;;;;;4.37;3.73;;;23.20;62.30;;;;;;5040794;27;20635;-83
2021/10/01 14:33:54;;;;;;;3.60;3.30;;;22.70;63.60;;;;;;5044496;27;21052;-84
2021/10/01 14:36:30;;;;;;;4.53;3.40;;;22.20;67.10;;;;;;5041830;28;20643;-84
2021/10/01 14:39:08;;;;;;;4.10;3.80;;;22.10;65.10;;;;;;5041547;28;20653;-83
2021/10/01 14:41:51;;;;;;;3.20;2.90;;;22.80;71.50;;;;;;5033533;28;20715;-84
2021/10/01 14:44:29;;;;;;;3.83;3.40;;;24.30;66.10;;;;;;5030178;28;20622;-83
2021/10/01 14:47:10;;;;;;;3.97;3.67;;;25.10;62.30;;;;;;5038588;28;20747;-84
2021/10/01 14:49:45;;;;;;;3.73;3.43;;;24.90;59.70;;;;;;5041064;27;20742;-83
2021/10/01 14:52:27;;;;;;;3.67;3.37;;;24.40;63.80;;;;;;5044462;28;20629;-84
2021/10/01 14:55:03;;;;;;;5.20;3.57;;;23.70;65.60;;;;;;5036081;28;20648;-84
2021/10/01 14:57:37;;;;;;;5.90;3.80;;;23.10;60.10;;;;;;5032102;28;20614;-83
2021/10/01 15:00:12;;;;;;;4.57;3.90;;;22.90;62.20;;;;;;5038318;28;20660;-84
2021/10/01 15:02:47;;;;;;;3.93;3.63;;;22.80;62.90;;;;;;5030756;28;20612;-84
2021/10/01 15:05:27;;;;;;;3.97;3.57;;;22.80;60.50;;;;;;5029462;28;20622;-84
2021/10/01 15:08:01;;;;;;;3.57;3.17;;;22.40;61.20;;;;;;5027779;28;20688;-83
2021/10/01 15:10:39;;;;;;;4.20;3.80;;;22.00;61.20;;;;;;5029999;27;20654;-83
2021/10/01 15:13:18;;;;;;;3.80;3.50;;;21.70;62.60;;;;;;5029912;27;21011;-83
2021/10/01 15:15:54;;;;;;;3.70;3.40;;;21.50;65.30;;;;;;5029668;28;20629;-84
2021/10/01 15:18:32;;;;;;;7.30;3.33;;;21.30;63.70;;;;;;5039543;27;20655;-84
2021/10/01 15:21:10;;;;;;;4.53;3.30;;;21.30;65.30;;;;;;5047933;28;20718;-84
2021/10/01 15:23:46;;;;;;;3.73;3.43;;;21.20;65.90;;;;;;5046465;27;20639;-84